Terminal Aerodrome Forecast
Issued by NWS

Home | Current Version | Previous Version | Text Only | Print | Product List | Glossary Off
Versions: 1 2 3 4 5 6 7 8 9 10 11 12 13

000
FTUS45 KGGW 241139
TAFGDV
TAF
KGDV 241139Z 2412/2512 11005KT P6SM OVC015
     FM241700 13005KT P6SM BKN025
     FM250700 23004KT P6SM BKN035
     FM250900 28004KT P6SM BKN023=

USA.gov is the U.S. government's official web portal to all federal, state and local government web resources and services.